Time;durP1;ratioP1;P1;durP2;ratioP2;P2;SDS_P1;SDS_P2;PMS_P1;PMS_P2;Temp;Humidity;BMP_temperature;BMP_pressure;BME280_temperature;BME280_humidity;BME280_pressure;Samples;Min_cycle;Max_cycle;Signal;HPM_P1;HPM_P2
2021/12/09 00:00:01;;;;;;;137.43;59.58;;;;;;;-4.14;73.20;96314.66;1749899;80;25795;-81
2021/12/09 00:02:31;;;;;;;136.97;58.20;;;;;;;-4.11;73.28;96309.10;1750077;81;25734;-82
2021/12/09 00:04:58;;;;;;;124.53;56.13;;;;;;;-4.11;73.35;96309.94;1750213;80;27460;-82
2021/12/09 00:07:24;;;;;;;144.07;60.10;;;;;;;-4.12;73.51;96312.22;1750150;80;25826;-82
2021/12/09 00:09:51;;;;;;;146.20;61.05;;;;;;;-4.14;73.53;96314.17;1750278;80;26338;-82
2021/12/09 00:12:21;;;;;;;138.35;59.55;;;;;;;-4.15;73.55;96314.31;1750452;80;26403;-82
2021/12/09 00:14:47;;;;;;;138.65;56.70;;;;;;;-4.15;73.55;96309.88;1750549;80;25699;-82
2021/12/09 00:17:14;;;;;;;125.00;52.70;;;;;;;-4.12;73.57;96314.86;1750573;80;27515;-82
2021/12/09 00:19:41;;;;;;;118.85;49.30;;;;;;;-4.07;73.54;96309.12;1750401;80;25898;-82
2021/12/09 00:22:12;;;;;;;120.28;48.98;;;;;;;-4.11;73.51;96309.10;1750400;80;25754;-82
2021/12/09 00:24:38;;;;;;;117.03;49.13;;;;;;;-4.11;73.48;96311.25;1750433;81;26544;-82
2021/12/09 00:27:05;;;;;;;109.22;47.20;;;;;;;-4.15;73.42;96307.23;1750294;81;25772;-82
2021/12/09 00:29:32;;;;;;;107.58;44.00;;;;;;;-4.17;73.47;96311.83;1750495;81;27358;-81
2021/12/09 00:31:59;;;;;;;108.32;46.65;;;;;;;-4.17;73.45;96309.19;1750378;80;26489;-82
2021/12/09 00:34:32;;;;;;;114.17;46.60;;;;;;;-4.17;73.42;96311.83;1750523;80;26153;-82
2021/12/09 00:37:17;;;;;;;112.03;48.25;;;;;;;-4.15;73.50;96315.14;1750476;80;26304;-82
2021/12/09 00:39:32;;;;;;;114.88;47.75;;;;;;;-4.15;73.51;96308.56;1749077;80;25747;-82
2021/12/09 00:41:59;;;;;;;105.10;44.42;;;;;;;-4.15;73.58;96308.56;1750417;80;27492;-82
2021/12/09 00:44:25;;;;;;;91.40;41.00;;;;;;;-4.13;73.59;96301.83;1750394;80;25731;-81
2021/12/09 00:46:52;;;;;;;95.55;41.70;;;;;;;-4.14;73.56;96304.95;1750480;80;25711;-82
2021/12/09 00:49:20;;;;;;;87.15;40.05;;;;;;;-4.11;73.55;96300.70;1750495;80;25703;-81
2021/12/09 00:51:46;;;;;;;92.27;41.48;;;;;;;-4.08;73.52;96300.39;1750481;80;25636;-81
2021/12/09 00:54:13;;;;;;;102.35;45.50;;;;;;;-4.08;73.52;96289.84;1750552;80;28456;-82
2021/12/09 00:56:39;;;;;;;98.50;44.75;;;;;;;-4.04;73.56;96293.86;1750395;81;25718;-82
2021/12/09 00:59:06;;;;;;;95.80;40.73;;;;;;;-4.02;73.60;96281.36;1750091;80;25866;-81
2021/12/09 01:01:33;;;;;;;85.47;40.28;;;;;;;-4.01;73.56;96277.75;1747585;80;25740;-81
2021/12/09 01:03:59;;;;;;;90.50;38.38;;;;;;;-4.01;73.59;96271.16;1747491;80;26504;-82
2021/12/09 01:06:26;;;;;;;88.85;39.25;;;;;;;-4.01;73.63;96277.75;1747553;80;26970;-82
2021/12/09 01:08:52;;;;;;;91.28;39.60;;;;;;;-3.97;73.63;96270.35;1747358;80;25853;-82
2021/12/09 01:11:19;;;;;;;94.85;41.28;;;;;;;-3.97;73.59;96268.20;1747526;80;25735;-82
2021/12/09 01:13:45;;;;;;;107.80;44.60;;;;;;;-3.95;73.60;96258.34;1747522;80;25726;-82
2021/12/09 01:16:12;;;;;;;94.77;42.05;;;;;;;-3.90;73.59;96266.16;1748716;80;25805;-82
2021/12/09 01:18:41;;;;;;;95.95;43.15;;;;;;;-3.87;73.63;96255.80;1747525;80;28126;-81
2021/12/09 01:21:09;;;;;;;97.37;41.02;;;;;;;-3.88;73.50;96255.46;1747488;82;25734;-81
2021/12/09 01:23:36;;;;;;;93.40;42.25;;;;;;;-3.93;73.49;96237.94;1747505;80;26221;-82
2021/12/09 01:26:06;;;;;;;102.97;43.50;;;;;;;-3.95;73.47;96233.30;1747498;80;26463;-82
2021/12/09 01:28:42;;;;;;;96.82;42.83;;;;;;;-3.95;73.51;96235.45;1747601;82;26572;-82
2021/12/09 01:31:04;;;;;;;96.72;43.23;;;;;;;-3.92;73.54;96239.59;1746453;81;27361;-81
2021/12/09 01:33:33;;;;;;;90.12;41.37;;;;;;;-3.92;73.50;96239.11;1747470;82;25807;-82
2021/12/09 01:36:00;;;;;;;98.05;44.88;;;;;;;-3.88;73.54;96239.16;1747498;82;25722;-82
2021/12/09 01:38:30;;;;;;;92.20;42.78;;;;;;;-3.89;73.49;96244.58;1747466;80;25739;-81
2021/12/09 01:40:58;;;;;;;97.15;44.53;;;;;;;-3.86;73.56;96237.66;1747423;79;25687;-81
2021/12/09 01:43:26;;;;;;;102.12;44.83;;;;;;;-3.84;73.65;96234.39;1747465;80;27541;-82
2021/12/09 01:46:12;;;;;;;98.87;44.10;;;;;;;-3.80;73.66;96243.17;1747438;80;25635;-82
2021/12/09 01:48:42;;;;;;;96.90;43.98;;;;;;;-3.74;73.73;96239.09;1721689;80;25778;-81
2021/12/09 01:51:08;;;;;;;87.05;41.18;;;;;;;-3.71;73.64;96247.53;1747481;80;25752;-81
2021/12/09 01:53:36;;;;;;;85.72;40.28;;;;;;;-3.67;73.63;96248.06;1747573;80;25613;-82
2021/12/09 01:56:07;;;;;;;103.75;46.08;;;;;;;-3.66;73.57;96234.73;1747524;82;27362;-81
2021/12/09 01:58:35;;;;;;;123.33;53.00;;;;;;;-3.62;73.58;96237.08;1747658;80;25672;-82
2021/12/09 02:01:04;;;;;;;124.22;51.45;;;;;;;-3.60;73.61;96231.96;1741147;81;25914;-81
2021/12/09 02:03:31;;;;;;;95.92;43.38;;;;;;;-3.58;73.60;96231.81;1739353;82;26337;-82
2021/12/09 02:05:58;;;;;;;91.92;41.02;;;;;;;-3.57;73.62;96237.42;1739553;81;25731;-82
2021/12/09 02:08:25;;;;;;;109.07;45.10;;;;;;;-3.54;73.63;96234.00;1739547;81;28151;-82
2021/12/09 02:10:52;;;;;;;111.65;48.65;;;;;;;-3.51;73.64;96238.16;1739413;81;25663;-82
2021/12/09 02:13:20;;;;;;;100.60;43.40;;;;;;;-3.47;73.66;96230.25;1739486;81;25629;-82
2021/12/09 02:15:51;;;;;;;91.95;41.88;;;;;;;-3.44;73.72;96225.50;1739290;81;25783;-82
2021/12/09 02:18:16;;;;;;;89.37;41.85;;;;;;;-3.41;73.68;96221.25;1739391;81;25715;-82
2021/12/09 02:20:45;;;;;;;98.72;44.75;;;;;;;-3.37;73.65;96213.34;1739184;81;27390;-82
2021/12/09 02:23:15;;;;;;;96.55;42.80;;;;;;;-3.36;73.61;96196.52;1739450;81;25222;-82
2021/12/09 02:25:44;;;;;;;89.77;41.50;;;;;;;-3.35;73.57;96199.50;1739122;81;25890;-82
2021/12/09 02:28:16;;;;;;;97.53;44.15;;;;;;;-3.35;73.67;96200.82;1739707;81;26301;-81
2021/12/09 02:30:43;;;;;;;103.00;45.55;;;;;;;-3.32;73.70;96205.80;1739618;82;25710;-82
2021/12/09 02:33:10;;;;;;;93.85;44.65;;;;;;;-3.30;73.70;96205.16;1739586;81;27517;-82
2021/12/09 02:35:38;;;;;;;94.62;43.52;;;;;;;-3.29;73.73;96198.90;1739444;81;25683;-81
2021/12/09 02:38:07;;;;;;;90.80;41.60;;;;;;;-3.31;73.62;96201.34;1739517;81;25715;-82
2021/12/09 02:40:35;;;;;;;94.65;42.65;;;;;;;-3.31;73.67;96207.45;1765424;79;25827;-82
2021/12/09 02:43:04;;;;;;;93.27;41.63;;;;;;;-3.28;73.76;96207.16;1770017;79;25702;-82
2021/12/09 02:45:31;;;;;;;81.45;39.33;;;;;;;-3.24;73.80;96208.14;1765595;79;28116;-81
2021/12/09 02:47:57;;;;;;;79.05;36.95;;;;;;;-3.19;73.85;96209.84;1770073;81;25764;-82
2021/12/09 02:50:24;;;;;;;78.62;37.65;;;;;;;-3.12;73.85;96214.81;1770229;80;25635;-82
2021/12/09 02:52:51;;;;;;;92.05;41.55;;;;;;;-3.06;73.80;96222.13;1770062;79;26288;-82
2021/12/09 02:55:17;;;;;;;83.50;37.60;;;;;;;-3.01;73.70;96222.47;1770287;79;26433;-82
2021/12/09 02:57:44;;;;;;;90.65;39.92;;;;;;;-3.02;73.56;96216.88;1770059;79;28111;-82
2021/12/09 03:00:12;;;;;;;83.33;40.52;;;;;;;-3.02;73.57;96212.92;1772869;79;25676;-82
2021/12/09 03:02:43;;;;;;;82.12;38.80;;;;;;;-3.00;73.70;96209.61;1780811;79;25802;-81
2021/12/09 03:05:10;;;;;;;85.28;43.65;;;;;;;-2.98;73.71;96219.52;1781162;79;26581;-82
2021/12/09 03:07:41;;;;;;;94.67;43.98;;;;;;;-2.95;73.82;96224.50;1781095;79;25750;-81
2021/12/09 03:10:24;;;;;;;89.50;41.10;;;;;;;-2.93;73.83;96215.94;1781056;80;29710;-81
2021/12/09 03:12:55;;;;;;;82.27;39.25;;;;;;;-2.91;73.82;96216.12;1780114;80;26354;-82
2021/12/09 03:15:23;;;;;;;85.20;38.58;;;;;;;-2.88;73.85;96206.20;1781085;80;25751;-82
2021/12/09 03:17:49;;;;;;;78.97;36.10;;;;;;;-2.85;73.92;96202.76;1781153;79;26406;-82
2021/12/09 03:20:19;;;;;;;83.25;37.95;;;;;;;-2.82;73.87;96218.30;1781099;79;25736;-81
2021/12/09 03:22:48;;;;;;;81.08;38.67;;;;;;;-2.82;73.83;96213.02;1781068;79;27348;-82
2021/12/09 03:25:18;;;;;;;84.97;40.28;;;;;;;-2.79;73.85;96211.39;1781004;80;25715;-82
2021/12/09 03:27:45;;;;;;;80.60;39.00;;;;;;;-2.77;73.84;96210.71;1780814;79;25728;-81
2021/12/09 03:30:16;;;;;;;91.00;42.15;;;;;;;-2.76;73.82;96211.05;1780988;79;25904;-82
2021/12/09 03:32:43;;;;;;;89.07;41.73;;;;;;;-2.74;73.89;96209.58;1781131;80;25769;-81
2021/12/09 03:35:12;;;;;;;86.08;39.65;;;;;;;-2.74;73.87;96202.48;1780999;79;27411;-82
2021/12/09 03:37:41;;;;;;;84.17;38.92;;;;;;;-2.71;73.90;96204.81;1780976;79;25746;-82
2021/12/09 03:40:09;;;;;;;88.03;38.63;;;;;;;-2.68;73.94;96201.03;1780975;79;25925;-82
2021/12/09 03:42:38;;;;;;;84.77;39.85;;;;;;;-2.67;73.98;96200.88;1781075;79;25579;-81
2021/12/09 03:45:07;;;;;;;92.25;40.63;;;;;;;-2.65;73.95;96200.20;1781062;80;25771;-81
2021/12/09 03:47:35;;;;;;;86.95;41.68;;;;;;;-2.65;73.93;96190.13;1780943;79;26814;-81
2021/12/09 03:50:06;;;;;;;87.80;41.08;;;;;;;-2.65;73.96;96195.41;1780888;80;25706;-82
2021/12/09 03:52:32;;;;;;;93.27;40.85;;;;;;;-2.62;73.99;96207.81;1780960;80;25741;-82
2021/12/09 03:54:59;;;;;;;88.95;40.48;;;;;;;-2.55;74.05;96202.24;1781036;79;25678;-82
2021/12/09 03:57:26;;;;;;;80.87;36.75;;;;;;;-2.49;74.03;96193.33;1780973;80;26315;-81
2021/12/09 03:59:53;;;;;;;80.20;37.93;;;;;;;-2.50;73.94;96204.87;1780837;79;27196;-82
2021/12/09 04:02:20;;;;;;;82.47;37.83;;;;;;;-2.48;73.87;96214.80;1777821;79;25754;-82
2021/12/09 04:04:47;;;;;;;76.95;36.28;;;;;;;-2.47;73.87;96214.64;1778238;79;25637;-80
2021/12/09 04:07:13;;;;;;;74.45;37.38;;;;;;;-2.42;73.87;96227.39;1778210;80;25656;-82
2021/12/09 04:09:40;;;;;;;77.55;37.67;;;;;;;-2.40;73.88;96234.64;1778314;79;25715;-82
2021/12/09 04:12:09;;;;;;;76.53;33.53;;;;;;;-2.38;73.79;96232.18;1778169;80;27355;-82
2021/12/09 04:14:36;;;;;;;77.05;37.53;;;;;;;-2.43;73.63;96232.34;1778235;80;25657;-82
2021/12/09 04:17:04;;;;;;;77.60;36.93;;;;;;;-2.47;73.70;96230.99;1778267;79;26481;-82
2021/12/09 04:19:30;;;;;;;78.85;37.65;;;;;;;-2.46;73.73;96227.37;1778336;79;25808;-80
2021/12/09 04:21:57;;;;;;;80.87;38.48;;;;;;;-2.45;73.82;96227.70;1778276;79;25647;-81
2021/12/09 04:24:23;;;;;;;92.12;44.53;;;;;;;-2.44;73.86;96229.36;1778080;80;28211;-82
2021/12/09 04:26:53;;;;;;;92.62;43.40;;;;;;;-2.45;73.84;96221.92;1778161;79;25839;-81
2021/12/09 04:29:20;;;;;;;87.80;45.65;;;;;;;-2.47;73.86;96209.86;1778199;79;25716;-81
2021/12/09 04:31:48;;;;;;;85.12;41.88;;;;;;;-2.50;73.88;96199.59;1778234;79;26269;-81
2021/12/09 04:34:15;;;;;;;84.95;40.95;;;;;;;-2.51;73.94;96192.66;1778388;79;25662;-82
2021/12/09 04:36:42;;;;;;;83.62;39.40;;;;;;;-2.54;74.04;96201.23;1778280;79;28048;-81
2021/12/09 04:39:09;;;;;;;82.78;38.78;;;;;;;-2.51;74.02;96205.37;1778170;79;25725;-80
2021/12/09 04:41:35;;;;;;;76.53;37.08;;;;;;;-2.51;74.07;96203.22;1778240;80;25369;-80
2021/12/09 04:44:03;;;;;;;88.52;39.53;;;;;;;-2.48;74.09;96212.98;1778361;80;26479;-81
2021/12/09 04:46:29;;;;;;;78.67;39.92;;;;;;;-2.47;74.12;96197.96;1778314;79;25718;-81
2021/12/09 04:48:56;;;;;;;94.32;42.75;;;;;;;-2.45;74.17;96174.85;1778260;79;28000;-81
2021/12/09 04:51:23;;;;;;;109.12;45.48;;;;;;;-2.43;74.23;96165.78;1778249;79;26059;-81
2021/12/09 04:53:50;;;;;;;101.20;47.33;;;;;;;-2.41;74.23;96174.84;1778369;79;25684;-81
2021/12/09 04:56:16;;;;;;;103.02;46.20;;;;;;;-2.40;74.26;96176.01;1778309;79;25685;-81
2021/12/09 04:58:43;;;;;;;110.88;45.55;;;;;;;-2.36;74.27;96163.30;1778427;79;25785;-81
2021/12/09 05:01:10;;;;;;;123.87;49.20;;;;;;;-2.36;74.28;96175.20;1778289;80;27420;-81
2021/12/09 05:03:36;;;;;;;112.55;47.33;;;;;;;-2.35;74.28;96183.47;1778069;79;25730;-82
2021/12/09 05:06:03;;;;;;;112.90;47.05;;;;;;;-2.32;74.36;96195.05;1778428;79;26103;-82
2021/12/09 05:08:32;;;;;;;114.72;47.67;;;;;;;-2.29;74.31;96193.38;1778429;79;25820;-81
2021/12/09 05:11:09;;;;;;;111.08;48.08;;;;;;;-2.27;74.35;96196.69;1778417;79;25762;-82
2021/12/09 05:13:36;;;;;;;105.92;46.02;;;;;;;-2.26;74.37;96191.74;1778073;79;27486;-80
2021/12/09 05:16:05;;;;;;;93.05;42.93;;;;;;;-2.29;74.34;96170.42;1778360;79;25687;-81
2021/12/09 05:18:35;;;;;;;91.75;43.33;;;;;;;-2.34;74.39;96172.73;1778371;79;25650;-80
2021/12/09 05:21:04;;;;;;;95.35;43.40;;;;;;;-2.40;74.40;96177.33;1778428;79;25746;-81
2021/12/09 05:23:31;;;;;;;101.07;44.38;;;;;;;-2.41;74.42;96179.64;1778072;79;25864;-81
2021/12/09 05:25:58;;;;;;;99.95;42.73;;;;;;;-2.41;74.41;96185.41;1778396;79;27424;-82
2021/12/09 05:28:32;;;;;;;100.35;42.83;;;;;;;-2.44;74.39;96202.94;1778284;79;25719;-81
2021/12/09 05:33:28;;;;;;;103.87;45.60;;;;;;;-2.52;74.47;96199.75;1745059;79;25771;-82
2021/12/09 05:35:55;;;;;;;113.57;50.85;;;;;;;-2.51;74.55;96182.09;1778436;79;25623;-82
2021/12/09 05:38:22;;;;;;;111.08;47.95;;;;;;;-2.48;74.56;96175.17;1778414;79;28105;-80
2021/12/09 05:40:49;;;;;;;114.42;48.45;;;;;;;-2.47;74.56;96164.44;1778168;79;26394;-81
2021/12/09 05:43:16;;;;;;;99.72;45.05;;;;;;;-2.46;74.55;96144.13;1778350;79;25798;-81
2021/12/09 05:45:44;;;;;;;105.00;45.78;;;;;;;-2.45;74.58;96132.08;1778340;79;25820;-81
2021/12/09 05:48:11;;;;;;;125.47;53.83;;;;;;;-2.46;74.53;96133.56;1778326;79;25773;-81
2021/12/09 05:50:39;;;;;;;118.28;51.23;;;;;;;-2.48;74.50;96127.11;1778375;79;28009;-82
2021/12/09 05:53:07;;;;;;;114.37;50.75;;;;;;;-2.52;74.56;96124.94;1778231;80;25730;-82
2021/12/09 05:55:33;;;;;;;109.48;48.85;;;;;;;-2.50;74.65;96126.94;1778333;79;25695;-81
2021/12/09 05:58:00;;;;;;;101.80;45.80;;;;;;;-2.46;74.69;96140.16;1778376;79;25674;-81
2021/12/09 06:00:28;;;;;;;104.15;44.35;;;;;;;-2.45;74.67;96152.39;1778331;79;25658;-80
2021/12/09 06:02:55;;;;;;;101.67;45.30;;;;;;;-2.44;74.63;96156.69;1777940;79;28384;-81
2021/12/09 06:05:22;;;;;;;113.92;49.45;;;;;;;-2.44;74.65;96158.02;1778264;79;26572;-81
2021/12/09 06:07:49;;;;;;;122.07;53.92;;;;;;;-2.42;74.67;96169.25;1778379;79;25696;-81
2021/12/09 06:10:16;;;;;;;122.62;54.75;;;;;;;-2.49;74.55;96181.44;1778243;79;26615;-81
2021/12/09 06:12:43;;;;;;;154.03;62.53;;;;;;;-2.52;74.54;96182.58;1778286;79;25692;-80
2021/12/09 06:15:10;;;;;;;162.70;69.90;;;;;;;-2.57;74.56;96194.14;1778290;80;28054;-81
2021/12/09 06:17:36;;;;;;;175.62;71.62;;;;;;;-2.62;74.70;96190.64;1778218;79;26070;-81
2021/12/09 06:20:05;;;;;;;150.70;64.85;;;;;;;-2.60;74.82;96183.39;1778033;79;25288;-81
2021/12/09 06:22:32;;;;;;;142.87;61.60;;;;;;;-2.58;74.83;96194.63;1778311;79;26372;-80
2021/12/09 06:24:58;;;;;;;132.45;59.42;;;;;;;-2.54;74.90;96203.08;1778051;80;25738;-81
2021/12/09 06:27:25;;;;;;;139.30;58.00;;;;;;;-2.52;74.87;96210.32;1778334;79;27441;-82
2021/12/09 06:29:51;;;;;;;143.37;62.08;;;;;;;-2.50;74.86;96208.84;1778160;79;25758;-81
2021/12/09 06:32:18;;;;;;;143.70;62.25;;;;;;;-2.44;74.93;96212.19;1778288;79;25762;-81
2021/12/09 06:34:44;;;;;;;136.92;60.38;;;;;;;-2.39;74.95;96214.66;1778318;80;25833;-81
2021/12/09 06:37:11;;;;;;;139.20;60.33;;;;;;;-2.44;74.88;96216.15;1778311;79;25721;-81
2021/12/09 06:39:39;;;;;;;145.92;60.58;;;;;;;-2.54;74.94;96201.23;1778318;79;27645;-81
2021/12/09 06:42:07;;;;;;;170.90;69.25;;;;;;;-2.51;75.10;96195.30;1778165;79;25731;-82
2021/12/09 06:44:33;;;;;;;161.28;65.52;;;;;;;-2.47;75.16;96197.96;1778224;79;25623;-81
2021/12/09 06:47:00;;;;;;;132.90;55.83;;;;;;;-2.44;75.15;96198.97;1778321;79;25682;-81
2021/12/09 06:49:26;;;;;;;128.50;57.95;;;;;;;-2.42;75.16;96187.75;1778308;79;25618;-81
2021/12/09 06:51:53;;;;;;;119.77;52.95;;;;;;;-2.38;75.21;96189.06;1778301;79;27269;-81
2021/12/09 06:54:19;;;;;;;132.00;59.70;;;;;;;-2.36;75.19;96209.06;1778219;79;25718;-81
2021/12/09 06:56:46;;;;;;;137.88;66.17;;;;;;;-2.38;75.20;96210.20;1778335;80;25777;-82
2021/12/09 06:59:13;;;;;;;147.57;70.22;;;;;;;-2.35;75.27;96209.41;1778280;79;25786;-81
2021/12/09 07:01:39;;;;;;;146.35;71.42;;;;;;;-2.31;75.31;96213.88;1778994;79;25746;-82
2021/12/09 07:04:08;;;;;;;166.62;75.92;;;;;;;-2.29;75.32;96224.60;1781030;79;28065;-82
2021/12/09 07:06:37;;;;;;;183.50;79.70;;;;;;;-2.24;75.30;96222.81;1780995;79;25805;-81
2021/12/09 07:09:05;;;;;;;175.42;77.22;;;;;;;-2.21;75.26;96215.39;1780996;79;25667;-81
2021/12/09 07:11:32;;;;;;;166.37;75.50;;;;;;;-2.19;75.27;96212.59;1780759;79;26393;-82
2021/12/09 07:13:59;;;;;;;162.30;72.32;;;;;;;-2.15;75.29;96213.91;1781071;79;26241;-81
2021/12/09 07:16:26;;;;;;;164.18;72.32;;;;;;;-2.12;75.30;96210.95;1781034;79;28345;-81
2021/12/09 07:18:53;;;;;;;177.90;80.22;;;;;;;-2.07;75.32;96209.98;1780941;79;25852;-81
2021/12/09 07:21:19;;;;;;;196.50;86.20;;;;;;;-2.01;75.37;96210.63;1781122;79;25722;-81
2021/12/09 07:23:46;;;;;;;183.40;83.40;;;;;;;-1.95;75.36;96220.58;1781050;79;25898;-82
2021/12/09 07:26:12;;;;;;;180.35;79.03;;;;;;;-1.88;75.35;96224.70;1781088;79;25716;-81
2021/12/09 07:28:39;;;;;;;179.10;78.62;;;;;;;-1.81;75.27;96231.81;1780976;79;27352;-81
2021/12/09 07:31:05;;;;;;;168.60;75.80;;;;;;;-1.78;75.18;96229.84;1780891;79;25686;-81
2021/12/09 07:33:32;;;;;;;172.30;77.32;;;;;;;-1.76;75.21;96239.77;1781052;79;25840;-81
2021/12/09 07:35:59;;;;;;;166.95;73.52;;;;;;;-1.73;75.24;96243.41;1752527;80;25719;-81
2021/12/09 07:38:25;;;;;;;182.25;75.42;;;;;;;-1.72;75.25;96220.77;1781017;80;25662;-81
2021/12/09 07:40:52;;;;;;;204.32;89.35;;;;;;;-1.74;75.30;96206.88;1780932;79;27612;-81
2021/12/09 07:43:19;;;;;;;209.25;90.95;;;;;;;-1.73;75.33;96211.17;1780899;79;25819;-81
2021/12/09 07:45:45;;;;;;;240.25;90.10;;;;;;;-1.72;75.34;96204.06;1781027;79;25649;-81
2021/12/09 07:48:12;;;;;;;249.73;92.85;;;;;;;-1.69;75.36;96203.74;1780999;79;25899;-81
2021/12/09 07:50:38;;;;;;;239.40;87.40;;;;;;;-1.64;75.47;96190.83;1781071;79;25639;-81
2021/12/09 07:53:06;;;;;;;243.65;90.25;;;;;;;-1.59;75.50;96193.81;1780926;79;27872;-82
2021/12/09 07:55:32;;;;;;;225.65;94.50;;;;;;;-1.61;75.43;96194.47;1780904;79;25856;-82
2021/12/09 07:57:59;;;;;;;201.35;82.97;;;;;;;-1.58;75.53;96183.56;1781016;79;25670;-82
2021/12/09 08:00:32;;;;;;;188.50;83.40;;;;;;;-1.53;75.55;96191.81;1780711;79;25737;-82
2021/12/09 08:03:01;;;;;;;164.82;75.70;;;;;;;-1.47;75.53;96192.49;1778833;80;25847;-81
2021/12/09 08:05:34;;;;;;;156.15;68.97;;;;;;;-1.41;75.52;96197.10;1778304;79;27626;-81
2021/12/09 08:08:02;;;;;;;138.47;62.10;;;;;;;-1.35;75.52;96187.68;1778160;80;25901;-82
2021/12/09 08:10:29;;;;;;;131.70;61.55;;;;;;;-1.30;75.44;96199.41;1778321;79;25671;-81
2021/12/09 08:12:57;;;;;;;129.90;56.53;;;;;;;-1.27;75.37;96204.38;1778263;79;25660;-81
2021/12/09 08:15:24;;;;;;;124.95;55.40;;;;;;;-1.23;75.34;96198.26;1778247;79;26345;-81
2021/12/09 08:18:25;;;;;;;109.10;52.05;;;;;;;-1.17;75.33;96205.02;1778243;80;27422;-82
2021/12/09 08:20:30;;;;;;;105.05;54.45;;;;;;;-1.09;75.28;96199.70;1774287;79;25735;-82
2021/12/09 08:22:57;;;;;;;119.22;54.53;;;;;;;-1.01;75.29;96199.37;1778250;80;25785;-81
2021/12/09 08:25:24;;;;;;;117.72;52.55;;;;;;;-0.94;75.24;96200.33;1778300;79;25848;-81
2021/12/09 08:27:52;;;;;;;109.40;52.13;;;;;;;-0.87;75.20;96200.00;1778227;79;25662;-81
2021/12/09 08:30:22;;;;;;;163.45;73.00;;;;;;;-0.83;75.03;96198.15;1778258;79;27318;-81
2021/12/09 08:32:49;;;;;;;167.87;74.53;;;;;;;-0.79;75.00;96199.97;1778187;79;26516;-81
2021/12/09 08:35:16;;;;;;;169.40;75.22;;;;;;;-0.76;75.00;96199.64;1778430;79;25706;-80
2021/12/09 08:37:45;;;;;;;169.00;77.08;;;;;;;-0.79;74.89;96200.80;1778138;79;25837;-81
2021/12/09 08:40:15;;;;;;;165.47;75.37;;;;;;;-0.81;74.91;96209.41;1778142;79;25659;-81
2021/12/09 08:42:44;;;;;;;174.87;75.32;;;;;;;-0.80;74.94;96208.91;1778402;79;27100;-81
2021/12/09 08:45:12;;;;;;;166.45;75.83;;;;;;;-0.81;74.89;96198.81;1778306;79;25824;-81
2021/12/09 08:47:41;;;;;;;135.43;63.78;;;;;;;-0.80;74.89;96198.31;1778317;79;25714;-81
2021/12/09 08:50:11;;;;;;;137.90;63.75;;;;;;;-0.73;74.98;96197.98;1778415;79;25699;-81
2021/12/09 08:52:38;;;;;;;156.97;72.20;;;;;;;-0.65;74.93;96219.14;1778422;79;25758;-81
2021/12/09 08:55:07;;;;;;;147.90;69.87;;;;;;;-0.56;74.85;96220.76;1778418;79;27538;-81
2021/12/09 08:57:34;;;;;;;145.05;69.45;;;;;;;-0.47;74.81;96223.70;1778345;79;25818;-82
2021/12/09 09:00:01;;;;;;;140.90;66.47;;;;;;;-0.36;74.80;96237.91;1778349;80;25870;-81
2021/12/09 09:02:27;;;;;;;137.30;65.25;;;;;;;-0.24;74.86;96227.73;1779203;79;25718;-81
2021/12/09 09:04:55;;;;;;;128.40;59.80;;;;;;;-0.16;74.57;96212.30;1781166;79;25702;-81
2021/12/09 09:07:22;;;;;;;127.67;58.75;;;;;;;-0.18;74.25;96212.48;1781169;79;27384;-82
2021/12/09 09:09:49;;;;;;;125.18;61.58;;;;;;;-0.14;74.20;96197.05;1781001;79;25805;-82
2021/12/09 09:12:17;;;;;;;158.70;75.20;;;;;;;-0.10;74.17;96173.13;1781101;79;25697;-81
2021/12/09 09:14:43;;;;;;;157.57;74.60;;;;;;;-0.09;74.13;96149.59;1781024;79;25738;-82
2021/12/09 09:17:10;;;;;;;151.75;71.40;;;;;;;-0.05;74.21;96159.69;1781211;80;25666;-82
2021/12/09 09:19:37;;;;;;;138.52;65.90;;;;;;;-0.03;74.16;96175.43;1781135;79;27362;-81
2021/12/09 09:22:05;;;;;;;143.20;67.20;;;;;;;-0.05;74.03;96169.47;1781097;79;25684;-81
2021/12/09 09:24:33;;;;;;;106.10;53.90;;;;;;;0.01;74.14;96160.79;1781070;79;26339;-82
2021/12/09 09:26:59;;;;;;;111.37;55.38;;;;;;;0.04;74.02;96155.14;1781114;79;25854;-81
2021/12/09 09:29:26;;;;;;;110.85;55.35;;;;;;;0.07;73.88;96169.39;1781191;79;25651;-82
2021/12/09 09:31:53;;;;;;;86.53;44.55;;;;;;;0.10;73.78;96184.14;1781094;80;27526;-81
2021/12/09 09:34:19;;;;;;;83.52;41.92;;;;;;;0.12;73.69;96184.27;1781087;79;25718;-82
2021/12/09 09:36:46;;;;;;;78.90;40.70;;;;;;;0.17;73.59;96166.00;1781302;80;25780;-82
2021/12/09 09:39:18;;;;;;;78.65;41.92;;;;;;;0.20;73.53;96148.90;1781188;79;25767;-82
2021/12/09 09:41:59;;;;;;;72.08;35.88;;;;;;;0.23;73.52;96135.28;1780837;79;25710;-82
2021/12/09 09:44:29;;;;;;;68.02;36.58;;;;;;;0.23;73.36;96146.72;1780428;79;27389;-82
2021/12/09 09:47:00;;;;;;;77.03;38.92;;;;;;;0.24;73.32;96160.29;1780382;80;26161;-82
2021/12/09 09:49:26;;;;;;;78.75;40.83;;;;;;;0.31;73.27;96147.15;1781069;80;25665;-82
2021/12/09 09:51:58;;;;;;;83.70;41.40;;;;;;;0.35;73.21;96139.98;1781048;79;25744;-82
2021/12/09 09:54:26;;;;;;;73.15;38.70;;;;;;;0.35;73.14;96139.98;1781266;79;26467;-82
2021/12/09 09:56:53;;;;;;;69.22;37.28;;;;;;;0.36;73.23;96131.53;1781158;79;28240;-82
2021/12/09 09:59:20;;;;;;;76.70;37.80;;;;;;;0.36;73.14;96125.69;1780928;79;25805;-82
2021/12/09 10:01:52;;;;;;;82.05;39.70;;;;;;;0.38;73.13;96124.69;1781100;79;25675;-82
2021/12/09 10:04:26;;;;;;;81.80;38.73;;;;;;;0.40;73.06;96117.38;1788544;78;25726;-82
2021/12/09 10:06:48;;;;;;;71.45;36.88;;;;;;;0.42;73.09;96128.64;1788079;78;25764;-82
2021/12/09 10:09:16;;;;;;;79.67;40.52;;;;;;;0.44;73.08;96111.53;1789243;78;28097;-82
2021/12/09 10:11:44;;;;;;;78.70;39.48;;;;;;;0.44;73.07;96103.56;1789011;78;25781;-82
2021/12/09 10:14:15;;;;;;;75.15;39.23;;;;;;;0.47;73.05;96089.11;1789163;78;25740;-82
2021/12/09 10:16:43;;;;;;;78.42;39.67;;;;;;;0.49;73.09;96085.75;1789428;79;26294;-82
2021/12/09 10:19:22;;;;;;;83.05;38.95;;;;;;;0.49;73.07;96087.08;1789225;78;25718;-82
2021/12/09 10:21:49;;;;;;;76.53;37.05;;;;;;;0.52;73.04;96094.69;1789145;78;27530;-82
2021/12/09 10:24:16;;;;;;;75.67;36.70;;;;;;;0.49;72.92;96092.39;1760302;78;25699;-82
2021/12/09 10:26:45;;;;;;;68.15;33.95;;;;;;;0.50;72.93;96092.72;1789096;78;25718;-82
2021/12/09 10:29:27;;;;;;;74.70;34.45;;;;;;;0.51;72.91;96092.54;1789139;78;25876;-82
2021/12/09 10:31:58;;;;;;;71.33;34.18;;;;;;;0.54;72.93;96091.36;1788033;78;25701;-81
2021/12/09 10:34:36;;;;;;;68.07;35.25;;;;;;;0.56;72.92;96080.05;1789113;78;28669;-81
2021/12/09 10:37:20;;;;;;;78.37;37.63;;;;;;;0.57;72.89;96075.07;1789019;79;25821;-81
2021/12/09 10:40:06;;;;;;;;;;;;;;;0.60;72.91;96068.08;1791489;80;25699;-82
2021/12/09 10:42:38;;;;;;;69.60;33.05;;;;;;;0.63;72.83;96060.55;1788726;78;25715;-82
2021/12/09 10:45:18;;;;;;;78.62;38.42;;;;;;;0.66;72.89;96075.30;1788856;78;26039;-82
2021/12/09 10:47:55;;;;;;;61.77;30.23;;;;;;;0.71;72.88;96073.77;1789133;78;27358;-82
2021/12/09 10:50:35;;;;;;;66.92;35.48;;;;;;;0.71;72.59;96071.61;1788766;78;25739;-82
2021/12/09 10:53:34;;;;;;;76.87;36.98;;;;;;;0.69;72.69;96070.96;1788650;80;25801;-82
2021/12/09 10:55:37;;;;;;;69.20;37.17;;;;;;;0.70;72.83;96063.31;1779086;78;25827;-81
2021/12/09 10:58:09;;;;;;;70.90;37.88;;;;;;;0.75;72.92;96052.95;1789113;78;25801;-82
2021/12/09 11:00:41;;;;;;;50.08;26.25;;;;;;;0.78;72.94;96043.30;1789270;80;28071;-82
2021/12/09 11:03:27;;;;;;;93.87;44.77;;;;;;;0.78;72.69;96039.31;1786104;78;29024;-82
2021/12/09 11:06:04;;;;;;;109.22;54.65;;;;;;;0.72;72.54;96051.48;1780784;79;25822;-82
2021/12/09 11:08:46;;;;;;;123.75;58.08;;;;;;;0.65;72.49;96047.92;1781059;80;25872;-82
2021/12/09 11:11:28;;;;;;;99.10;50.12;;;;;;;0.64;72.54;96052.91;1781200;79;26300;-81
2021/12/09 11:14:12;;;;;;;98.90;51.83;;;;;;;0.69;72.54;96057.68;1781294;79;27613;-81
2021/12/09 11:16:55;;;;;;;94.55;48.85;;;;;;;0.70;72.60;96059.33;1781049;79;25724;-81
2021/12/09 11:19:38;;;;;;;94.62;44.95;;;;;;;0.73;72.59;96063.75;1779380;79;26534;-82
2021/12/09 11:22:04;;;;;;;89.92;45.98;;;;;;;0.78;72.43;96071.69;1779806;79;27090;-82